Time;durP1;ratioP1;P1;durP2;ratioP2;P2;SDS_P1;SDS_P2;PMS_P1;PMS_P2;Temp;Humidity;BMP_temperature;BMP_pressure;BME280_temperature;BME280_humidity;BME280_pressure;Samples;Min_cycle;Max_cycle;Signal;HPM_P1;HPM_P2
2022/09/30 00:00:48;;;;;;;7.45;6.30;;;8.70;99.90;;;;;;5047385;28;20287;-45
2022/09/30 00:03:14;;;;;;;9.60;6.63;;;8.70;99.90;;;;;;5048076;28;20368;-45
2022/09/30 00:05:39;;;;;;;8.48;6.85;;;8.60;99.90;;;;;;5047313;28;20032;-47
2022/09/30 00:08:05;;;;;;;10.18;6.95;;;8.60;99.90;;;;;;5048578;28;20455;-47
2022/09/30 00:10:31;;;;;;;7.75;6.30;;;8.60;99.90;;;;;;5049034;28;20025;-45
2022/09/30 00:12:57;;;;;;;11.60;6.90;;;8.50;99.90;;;;;;5048135;28;20028;-46
2022/09/30 00:15:23;;;;;;;11.90;7.07;;;8.50;99.90;;;;;;5045702;28;20017;-45
2022/09/30 00:17:48;;;;;;;7.93;6.55;;;8.50;99.90;;;;;;5043910;28;20025;-45
2022/09/30 00:20:14;;;;;;;9.77;7.18;;;8.50;99.90;;;;;;5052158;28;20033;-46
2022/09/30 00:22:39;;;;;;;8.13;6.30;;;8.50;99.90;;;;;;5052004;28;20155;-46
2022/09/30 00:25:05;;;;;;;10.10;6.72;;;8.50;99.90;;;;;;5052110;28;20052;-47
2022/09/30 00:27:30;;;;;;;10.90;6.38;;;8.50;99.90;;;;;;5052091;28;20029;-46
2022/09/30 00:29:56;;;;;;;8.68;5.97;;;8.50;99.90;;;;;;5051858;28;20029;-46
2022/09/30 00:32:21;;;;;;;9.10;6.63;;;8.50;99.90;;;;;;5051777;28;20024;-46
2022/09/30 00:34:46;;;;;;;10.75;5.68;;;8.50;99.90;;;;;;5051853;28;20060;-45
2022/09/30 00:37:14;;;;;;;8.68;6.60;;;8.50;99.90;;;;;;5052090;28;20025;-47
2022/09/30 00:39:39;;;;;;;9.88;7.07;;;8.50;99.90;;;;;;5052152;28;20021;-45
2022/09/30 00:42:13;;;;;;;8.73;5.90;;;8.50;99.90;;;;;;5052358;28;20021;-45
2022/09/30 00:44:52;;;;;;;11.82;6.10;;;8.50;99.90;;;;;;5048530;28;20439;-46
2022/09/30 00:47:33;;;;;;;10.77;6.95;;;8.50;99.90;;;;;;5042510;28;20442;-48
2022/09/30 00:50:16;;;;;;;7.55;5.72;;;8.50;99.90;;;;;;5050806;28;20029;-46
2022/09/30 00:52:44;;;;;;;10.38;6.88;;;8.40;99.90;;;;;;5051377;28;20032;-46
2022/09/30 00:55:35;;;;;;;10.45;7.20;;;8.40;99.90;;;;;;5051546;28;20170;-45
2022/09/30 00:58:02;;;;;;;7.78;6.25;;;8.50;99.90;;;;;;5050178;28;20032;-49
2022/09/30 01:00:28;;;;;;;8.77;6.60;;;8.50;99.90;;;;;;5051034;28;20040;-46
2022/09/30 01:02:54;;;;;;;8.82;7.15;;;8.50;99.90;;;;;;5051099;28;20021;-45
2022/09/30 01:05:22;;;;;;;10.30;7.28;;;8.50;99.90;;;;;;5051235;28;20501;-44
2022/09/30 01:07:48;;;;;;;9.48;6.88;;;8.50;99.90;;;;;;5051354;28;20467;-45
2022/09/30 01:10:13;;;;;;;12.15;5.82;;;8.60;99.90;;;;;;5051326;28;20450;-44
2022/09/30 01:12:39;;;;;;;7.55;6.18;;;8.60;99.90;;;;;;5050821;28;20035;-45
2022/09/30 01:15:05;;;;;;;9.07;6.35;;;8.70;99.90;;;;;;5044967;28;20120;-48
2022/09/30 01:18:00;;;;;;;9.88;6.97;;;8.60;99.90;;;;;;5042804;28;20032;-45
2022/09/30 01:20:41;;;;;;;8.57;6.68;;;8.60;99.90;;;;;;5047672;28;20052;-45
2022/09/30 01:23:25;;;;;;;8.20;6.05;;;8.60;99.90;;;;;;5050484;28;20033;-45
2022/09/30 01:26:16;;;;;;;12.05;6.10;;;8.60;99.90;;;;;;5050174;28;20032;-48
2022/09/30 01:28:54;;;;;;;9.38;6.22;;;8.60;99.90;;;;;;5051326;28;20025;-45
2022/09/30 01:31:51;;;;;;;11.68;6.03;;;8.60;99.90;;;;;;5050954;28;20025;-46
2022/09/30 01:34:32;;;;;;;10.15;6.97;;;8.50;99.90;;;;;;5027655;28;20112;-45
2022/09/30 01:36:58;;;;;;;;;;;8.40;99.90;;;;;;5031440;28;20057;-46
2022/09/30 01:39:47;;;;;;;9.20;6.28;;;8.40;99.90;;;;;;5028462;28;19959;-45
2022/09/30 01:42:25;;;;;;;13.63;5.78;;;8.30;99.90;;;;;;5018646;28;20057;-46
2022/09/30 01:45:13;;;;;;;11.70;6.22;;;8.30;99.90;;;;;;5028665;28;20025;-48
2022/09/30 01:47:48;;;;;;;9.50;6.55;;;8.30;99.90;;;;;;5032920;28;20013;-44
2022/09/30 01:50:22;;;;;;;8.02;6.05;;;8.30;99.90;;;;;;5029887;28;20029;-46
2022/09/30 01:52:57;;;;;;;8.77;5.88;;;8.30;99.90;;;;;;5030102;28;20022;-45
2022/09/30 01:55:36;;;;;;;13.70;6.90;;;8.30;99.90;;;;;;5030706;28;20030;-46
2022/09/30 01:58:10;;;;;;;7.97;6.32;;;8.30;99.90;;;;;;5029300;28;20092;-46
2022/09/30 02:00:41;;;;;;;8.02;6.15;;;8.20;99.90;;;;;;5030631;28;20029;-48
2022/09/30 02:03:30;;;;;;;9.07;6.43;;;8.30;99.90;;;;;;5028804;28;20041;-45
2022/09/30 02:06:01;;;;;;;7.93;6.03;;;8.20;99.90;;;;;;5030196;28;20552;-47
2022/09/30 02:09:03;;;;;;;8.85;6.22;;;8.20;99.90;;;;;;5021456;28;20026;-45
2022/09/30 02:11:33;;;;;;;8.77;6.20;;;8.30;99.90;;;;;;5019053;28;20044;-45
2022/09/30 02:14:14;;;;;;;9.80;7.03;;;8.30;99.90;;;;;;5016488;28;20446;-45
2022/09/30 02:16:47;;;;;;;12.18;7.40;;;8.30;99.90;;;;;;5025252;28;20443;-45
2022/09/30 02:19:32;;;;;;;7.93;6.47;;;8.30;99.90;;;;;;5019160;28;20030;-46
2022/09/30 02:22:00;;;;;;;8.75;6.20;;;8.30;99.90;;;;;;5018055;28;20037;-45
2022/09/30 02:24:30;;;;;;;8.43;6.45;;;8.30;99.90;;;;;;5030024;28;20132;-45
2022/09/30 02:27:00;;;;;;;10.63;6.20;;;8.30;99.90;;;;;;5019618;28;20522;-44
2022/09/30 02:29:34;;;;;;;8.93;6.43;;;8.40;99.90;;;;;;5013856;28;20034;-44
2022/09/30 02:32:06;;;;;;;9.98;6.95;;;8.40;99.90;;;;;;5010191;28;20049;-44
2022/09/30 02:34:37;;;;;;;8.07;6.70;;;8.40;99.90;;;;;;5008597;28;20026;-44
2022/09/30 02:37:36;;;;;;;9.23;6.80;;;8.40;99.90;;;;;;5010006;28;20030;-45
2022/09/30 02:40:08;;;;;;;7.95;6.72;;;8.30;99.90;;;;;;5010035;28;20109;-45
2022/09/30 02:42:33;;;;;;;10.32;7.10;;;8.30;99.90;;;;;;5009514;28;20513;-45
2022/09/30 02:45:07;;;;;;;8.30;6.82;;;8.30;99.90;;;;;;5013171;28;20109;-45
2022/09/30 02:48:00;;;;;;;10.82;7.05;;;8.30;99.90;;;;;;5030854;28;20014;-44
2022/09/30 02:50:28;;;;;;;13.75;8.10;;;8.30;99.90;;;;;;5029897;28;20108;-45
2022/09/30 02:53:00;;;;;;;11.55;7.63;;;8.40;99.90;;;;;;5029349;28;20025;-45
2022/09/30 02:55:35;;;;;;;8.18;7.30;;;8.30;99.90;;;;;;5029795;28;20037;-44
2022/09/30 02:58:13;;;;;;;8.52;6.65;;;8.30;99.90;;;;;;5028572;28;20067;-45
2022/09/30 03:00:39;;;;;;;10.25;6.72;;;8.30;99.90;;;;;;5027506;28;21210;-45
2022/09/30 03:03:14;;;;;;;10.10;7.00;;;8.30;99.90;;;;;;5028693;28;20033;-45
2022/09/30 03:05:39;;;;;;;8.13;6.55;;;8.30;99.90;;;;;;5028887;28;20281;-45
2022/09/30 03:08:05;;;;;;;11.55;6.82;;;8.20;99.90;;;;;;5029440;28;20079;-45
2022/09/30 03:10:32;;;;;;;11.13;7.53;;;8.20;99.90;;;;;;5029459;28;20064;-46
2022/09/30 03:13:12;;;;;;;11.82;6.88;;;8.20;99.90;;;;;;5027499;28;20018;-45
2022/09/30 03:15:44;;;;;;;8.50;6.95;;;8.20;99.90;;;;;;5034395;28;20056;-46
2022/09/30 03:18:38;;;;;;;8.52;6.00;;;8.10;99.90;;;;;;5040623;28;20025;-44
2022/09/30 03:21:12;;;;;;;12.32;7.05;;;8.10;99.90;;;;;;5049234;28;20486;-46
2022/09/30 03:24:25;;;;;;;8.48;6.88;;;8.10;99.90;;;;;;5046390;28;20037;-45
2022/09/30 03:27:18;;;;;;;11.93;8.00;;;8.10;99.90;;;;;;5018620;28;20068;-45
2022/09/30 03:30:08;;;;;;;8.93;6.70;;;8.10;99.90;;;;;;5029332;28;20024;-45
2022/09/30 03:32:44;;;;;;;8.15;6.85;;;8.00;99.90;;;;;;5028699;28;20032;-45
2022/09/30 03:35:17;;;;;;;10.27;6.07;;;8.00;99.90;;;;;;5029205;28;20112;-45
2022/09/30 03:38:07;;;;;;;8.43;6.40;;;8.00;99.90;;;;;;5027870;28;20025;-46
2022/09/30 03:40:44;;;;;;;9.90;6.57;;;8.00;99.90;;;;;;5029140;28;20026;-45
2022/09/30 03:43:24;;;;;;;8.40;6.43;;;8.00;99.90;;;;;;5028492;28;20041;-45
2022/09/30 03:46:05;;;;;;;9.65;6.47;;;8.00;99.90;;;;;;5034865;28;20117;-45
2022/09/30 03:48:33;;;;;;;11.55;7.40;;;8.00;99.90;;;;;;5034324;28;20025;-45
2022/09/30 03:50:59;;;;;;;10.45;7.13;;;8.00;99.90;;;;;;5052421;28;20025;-45
2022/09/30 03:53:26;;;;;;;7.93;6.30;;;8.00;99.90;;;;;;5052161;28;20032;-45
2022/09/30 03:55:52;;;;;;;7.30;6.50;;;7.90;99.90;;;;;;5051341;28;20021;-45
2022/09/30 03:58:22;;;;;;;6.60;5.50;;;7.90;99.90;;;;;;5052957;28;20092;-46
2022/09/30 04:00:49;;;;;;;10.63;7.43;;;7.90;99.90;;;;;;5052563;28;20021;-44
2022/09/30 04:03:16;;;;;;;8.38;6.80;;;7.90;99.90;;;;;;5050977;28;20139;-45
2022/09/30 04:05:41;;;;;;;7.90;5.82;;;7.80;99.90;;;;;;5052420;28;20032;-45
2022/09/30 04:08:08;;;;;;;11.45;6.03;;;7.80;99.90;;;;;;5052326;28;20029;-46
2022/09/30 04:10:34;;;;;;;7.20;6.05;;;7.70;99.90;;;;;;5051299;28;20040;-45
2022/09/30 04:12:59;;;;;;;7.15;6.38;;;7.60;99.90;;;;;;5051746;28;20479;-46
2022/09/30 04:15:26;;;;;;;9.10;6.35;;;7.60;99.90;;;;;;5048315;28;20024;-46
2022/09/30 04:17:51;;;;;;;7.97;6.05;;;7.50;99.90;;;;;;5044141;28;20096;-45
2022/09/30 04:20:17;;;;;;;8.57;6.72;;;7.40;99.90;;;;;;5052249;28;20120;-45
2022/09/30 04:22:43;;;;;;;9.52;6.97;;;7.40;99.90;;;;;;5051633;28;20024;-45
2022/09/30 04:25:08;;;;;;;13.48;8.95;;;7.30;99.90;;;;;;5050646;28;20021;-45
2022/09/30 04:27:34;;;;;;;12.50;8.35;;;7.40;99.90;;;;;;5051162;28;20036;-45
2022/09/30 04:29:59;;;;;;;8.57;7.05;;;7.40;99.90;;;;;;5051780;28;20017;-45
2022/09/30 04:32:25;;;;;;;8.55;6.32;;;7.40;99.90;;;;;;5029760;28;20075;-45
2022/09/30 04:34:52;;;;;;;8.40;6.70;;;7.30;99.90;;;;;;5023852;28;20025;-46
2022/09/30 04:37:17;;;;;;;9.40;7.95;;;7.30;99.90;;;;;;5023352;28;20026;-45
2022/09/30 04:39:43;;;;;;;12.70;8.40;;;7.30;99.90;;;;;;5027768;28;20026;-44
2022/09/30 04:42:08;;;;;;;8.27;7.43;;;7.30;99.90;;;;;;5013770;28;20306;-45
2022/09/30 04:44:34;;;;;;;13.60;8.63;;;7.30;99.90;;;;;;5021820;28;20061;-46
2022/09/30 04:46:59;;;;;;;10.90;7.47;;;7.30;99.90;;;;;;5028913;28;20352;-44
2022/09/30 04:49:25;;;;;;;7.60;6.63;;;7.30;99.90;;;;;;5025207;28;20060;-44
2022/09/30 04:51:50;;;;;;;6.97;6.28;;;7.10;99.90;;;;;;5020965;28;20305;-44
2022/09/30 04:54:16;;;;;;;8.30;6.75;;;7.10;99.90;;;;;;5022215;28;20026;-45
2022/09/30 04:56:42;;;;;;;9.13;6.57;;;7.00;99.90;;;;;;5022085;28;20105;-45
2022/09/30 04:59:07;;;;;;;9.13;6.75;;;7.00;99.90;;;;;;5021350;28;20022;-45
2022/09/30 05:01:34;;;;;;;10.75;7.32;;;6.90;99.90;;;;;;5018866;28;20105;-45
2022/09/30 05:03:59;;;;;;;12.73;7.10;;;6.80;99.90;;;;;;5020125;28;20014;-45
2022/09/30 05:06:25;;;;;;;8.15;6.15;;;6.80;99.90;;;;;;5021789;28;20386;-44
2022/09/30 05:08:51;;;;;;;10.60;7.60;;;6.70;99.90;;;;;;5021887;28;20029;-44
2022/09/30 05:11:19;;;;;;;12.07;7.05;;;6.70;99.90;;;;;;5019933;28;20262;-45
2022/09/30 05:13:45;;;;;;;8.35;6.90;;;6.70;99.90;;;;;;5020942;28;20029;-45
2022/09/30 05:16:11;;;;;;;9.63;6.97;;;6.70;99.90;;;;;;5028966;28;20483;-44
2022/09/30 05:18:39;;;;;;;10.32;8.32;;;6.60;99.90;;;;;;5023693;28;20034;-45
2022/09/30 05:21:05;;;;;;;7.97;7.18;;;6.60;99.90;;;;;;5021130;28;20110;-44
2022/09/30 05:23:32;;;;;;;11.45;8.15;;;6.50;99.90;;;;;;5020865;28;20069;-47
2022/09/30 05:25:58;;;;;;;10.75;7.93;;;6.50;99.90;;;;;;5019688;28;20018;-45
2022/09/30 05:28:24;;;;;;;12.55;7.75;;;6.50;99.90;;;;;;5021061;28;20547;-46
2022/09/30 05:30:56;;;;;;;10.93;7.43;;;6.50;99.90;;;;;;5021766;28;20237;-45
2022/09/30 05:33:22;;;;;;;11.52;8.40;;;6.50;99.90;;;;;;5019549;28;20481;-46
2022/09/30 05:35:47;;;;;;;9.00;7.53;;;6.50;99.90;;;;;;5020800;28;20030;-47
2022/09/30 05:38:13;;;;;;;12.43;8.05;;;6.40;99.90;;;;;;5021678;28;20395;-48
2022/09/30 05:40:39;;;;;;;11.75;7.80;;;6.50;99.90;;;;;;5019485;28;20022;-46
2022/09/30 05:43:05;;;;;;;9.43;8.27;;;6.40;99.90;;;;;;5020356;28;20053;-45
2022/09/30 05:45:31;;;;;;;11.85;8.23;;;6.40;99.90;;;;;;5024774;28;20442;-49
2022/09/30 05:47:57;;;;;;;14.63;9.27;;;6.40;99.90;;;;;;5023820;28;20093;-46
2022/09/30 05:50:23;;;;;;;11.20;8.65;;;6.40;99.90;;;;;;5020941;28;20025;-46
2022/09/30 05:52:49;;;;;;;12.00;8.55;;;6.40;99.90;;;;;;5020287;28;20029;-47
2022/09/30 05:55:16;;;;;;;13.27;9.38;;;6.50;99.90;;;;;;5019401;28;20037;-46
2022/09/30 05:57:42;;;;;;;12.80;8.95;;;6.50;99.90;;;;;;5021194;28;20083;-45
2022/09/30 06:00:08;;;;;;;11.63;9.10;;;6.50;99.90;;;;;;5020150;28;20026;-44
2022/09/30 06:02:37;;;;;;;13.38;9.48;;;6.50;99.90;;;;;;5018678;28;20022;-46
2022/09/30 06:05:03;;;;;;;10.25;8.95;;;6.60;99.90;;;;;;5020680;28;20025;-45
2022/09/30 06:07:29;;;;;;;15.18;9.65;;;6.60;99.90;;;;;;5020229;28;20022;-44
2022/09/30 06:09:54;;;;;;;15.82;11.32;;;6.60;99.90;;;;;;5019216;28;20034;-45
2022/09/30 06:12:20;;;;;;;16.85;9.77;;;6.80;99.90;;;;;;5020284;28;20009;-47
2022/09/30 06:14:45;;;;;;;16.30;8.90;;;6.80;99.90;;;;;;5019407;28;20519;-46
2022/09/30 06:17:11;;;;;;;13.73;10.30;;;6.90;99.90;;;;;;5032323;28;20032;-45
2022/09/30 06:19:36;;;;;;;14.95;9.52;;;7.00;99.90;;;;;;5018852;28;20455;-45
2022/09/30 06:22:02;;;;;;;12.18;8.40;;;7.10;99.90;;;;;;5027302;28;20502;-46
2022/09/30 06:24:27;;;;;;;10.48;8.88;;;7.20;99.90;;;;;;5029388;28;20033;-45
2022/09/30 06:26:53;;;;;;;13.85;9.48;;;7.30;99.90;;;;;;5030554;28;20489;-44
2022/09/30 06:29:18;;;;;;;13.18;8.70;;;7.30;99.90;;;;;;5030082;28;20502;-49
2022/09/30 06:31:44;;;;;;;11.77;7.50;;;7.40;99.90;;;;;;5029466;28;20070;-45
2022/09/30 06:34:09;;;;;;;11.00;6.85;;;7.40;99.90;;;;;;5029321;28;20025;-48
2022/09/30 06:36:35;;;;;;;12.32;7.65;;;7.40;99.90;;;;;;5029662;28;20386;-46
2022/09/30 06:39:02;;;;;;;11.68;7.32;;;7.50;99.90;;;;;;5029834;28;20393;-45
2022/09/30 06:41:28;;;;;;;11.18;8.18;;;7.50;99.90;;;;;;5029866;28;20371;-45
2022/09/30 06:43:55;;;;;;;13.15;8.65;;;7.60;99.90;;;;;;5029535;28;20105;-45
2022/09/30 06:46:22;;;;;;;11.48;8.57;;;7.60;99.90;;;;;;5037410;28;20068;-45
2022/09/30 06:48:51;;;;;;;10.65;8.43;;;7.70;99.90;;;;;;5044381;28;20162;-44
2022/09/30 06:51:16;;;;;;;13.65;8.45;;;7.80;99.90;;;;;;5049536;28;20023;-44
2022/09/30 06:53:42;;;;;;;10.13;8.23;;;7.90;99.90;;;;;;5046716;28;20411;-44
2022/09/30 06:56:07;;;;;;;11.68;8.45;;;7.90;99.90;;;;;;5026351;28;20025;-44
2022/09/30 06:58:33;;;;;;;12.95;7.88;;;8.00;99.90;;;;;;5024862;28;20037;-45
2022/09/30 07:01:04;;;;;;;12.68;8.55;;;8.10;99.90;;;;;;5019907;28;20069;-45
2022/09/30 07:03:32;;;;;;;13.70;8.13;;;8.20;99.90;;;;;;5027339;28;20395;-44
2022/09/30 07:05:59;;;;;;;9.93;7.90;;;8.40;99.90;;;;;;5029289;28;20116;-43
2022/09/30 07:08:30;;;;;;;12.93;8.23;;;8.60;99.90;;;;;;5029442;28;20022;-44
2022/09/30 07:11:00;;;;;;;10.88;7.32;;;8.70;99.90;;;;;;5029629;28;20028;-45
2022/09/30 07:13:26;;;;;;;12.20;8.57;;;8.90;99.90;;;;;;5029041;28;20033;-46
2022/09/30 07:15:55;;;;;;;10.02;7.22;;;9.00;99.90;;;;;;5030917;28;20022;-44
2022/09/30 07:18:21;;;;;;;11.27;8.07;;;9.10;99.90;;;;;;5036932;28;20426;-45
2022/09/30 07:20:48;;;;;;;12.20;8.48;;;9.20;99.90;;;;;;5029959;28;20386;-44
2022/09/30 07:23:14;;;;;;;12.20;7.72;;;9.30;99.90;;;;;;5029132;28;20060;-44
2022/09/30 07:25:47;;;;;;;10.70;7.15;;;9.30;99.90;;;;;;5032562;28;20030;-44
2022/09/30 07:28:12;;;;;;;9.52;7.05;;;9.40;99.90;;;;;;5033221;28;20022;-45
2022/09/30 07:30:42;;;;;;;13.82;7.70;;;9.50;99.90;;;;;;5033002;28;20022;-45
2022/09/30 07:33:08;;;;;;;10.38;7.43;;;9.60;99.90;;;;;;5032849;28;20029;-44
2022/09/30 07:35:33;;;;;;;9.82;6.82;;;9.60;99.90;;;;;;5032825;28;20091;-45
2022/09/30 07:38:00;;;;;;;7.38;6.07;;;9.70;99.90;;;;;;5032836;28;20041;-44
2022/09/30 07:40:30;;;;;;;12.70;7.60;;;9.80;99.90;;;;;;5032745;28;20013;-44
2022/09/30 07:42:56;;;;;;;12.45;7.90;;;9.90;99.90;;;;;;5032155;28;20431;-44
2022/09/30 07:45:22;;;;;;;9.18;7.38;;;10.00;99.90;;;;;;5031947;28;20034;-44
2022/09/30 07:47:48;;;;;;;12.48;8.07;;;10.10;99.90;;;;;;5040531;28;20410;-45
2022/09/30 07:50:14;;;;;;;12.50;7.53;;;10.20;99.90;;;;;;5051199;28;20025;-47
2022/09/30 07:52:40;;;;;;;9.80;6.88;;;10.30;99.90;;;;;;5052336;28;20145;-46
2022/09/30 07:55:06;;;;;;;10.13;7.45;;;10.40;99.90;;;;;;5052987;28;20524;-44
2022/09/30 07:57:31;;;;;;;13.65;8.18;;;10.50;99.90;;;;;;5053264;28;20428;-45
2022/09/30 07:59:57;;;;;;;10.75;7.50;;;10.60;99.90;;;;;;5052796;28;20449;-45
2022/09/30 08:02:23;;;;;;;11.55;7.43;;;10.70;99.90;;;;;;5052309;28;20104;-45
2022/09/30 08:04:49;;;;;;;15.60;8.40;;;10.80;99.90;;;;;;5051513;28;20494;-45
2022/09/30 08:07:16;;;;;;;13.35;7.57;;;10.90;99.90;;;;;;5051406;28;20067;-45
2022/09/30 08:09:42;;;;;;;12.98;8.15;;;10.90;99.90;;;;;;5051355;28;20025;-46
2022/09/30 08:12:07;;;;;;;13.75;8.82;;;11.10;99.90;;;;;;5052672;28;20021;-46
2022/09/30 08:14:33;;;;;;;14.43;8.35;;;11.20;99.90;;;;;;5052048;28;20029;-46
2022/09/30 08:16:59;;;;;;;11.55;8.13;;;11.30;99.90;;;;;;5043941;28;20487;-47
2022/09/30 08:19:26;;;;;;;12.95;8.13;;;11.40;99.90;;;;;;5043916;28;20048;-45
2022/09/30 08:21:52;;;;;;;15.60;7.93;;;11.50;99.90;;;;;;5050870;28;20039;-48
2022/09/30 08:24:18;;;;;;;7.70;6.57;;;11.70;99.90;;;;;;5051539;28;20044;-46
2022/09/30 08:26:44;;;;;;;9.70;6.85;;;11.90;99.90;;;;;;5052189;28;20471;-46
2022/09/30 08:29:12;;;;;;;11.20;6.53;;;12.60;99.90;;;;;;5052108;28;20017;-46
2022/09/30 08:31:37;;;;;;;8.18;5.25;;;13.90;99.90;;;;;;5051898;28;20413;-45
2022/09/30 08:34:03;;;;;;;7.00;4.82;;;15.40;99.90;;;;;;5051673;28;20029;-46
2022/09/30 08:36:29;;;;;;;9.13;5.00;;;17.40;99.90;;;;;;5051669;28;20029;-46
2022/09/30 08:38:55;;;;;;;5.93;4.70;;;18.90;94.50;;;;;;5052303;28;20032;-46
2022/09/30 08:41:58;;;;;;;7.13;3.85;;;19.30;93.60;;;;;;5051811;28;20056;-46
2022/09/30 08:44:44;;;;;;;5.70;3.30;;;21.00;91.10;;;;;;5051602;28;20599;-46
2022/09/30 08:47:43;;;;;;;5.88;3.17;;;22.40;83.00;;;;;;5041356;28;20056;-46
2022/09/30 08:50:22;;;;;;;7.00;3.87;;;23.50;78.70;;;;;;5049642;28;20025;-49
2022/09/30 08:52:52;;;;;;;5.70;3.85;;;24.50;71.60;;;;;;5051210;28;20486;-47
2022/09/30 08:55:24;;;;;;;4.90;3.42;;;24.20;71.50;;;;;;5051592;28;20029;-47
2022/09/30 08:57:52;;;;;;;5.50;3.70;;;24.30;69.60;;;;;;5050235;28;20079;-47
2022/09/30 09:00:18;;;;;;;6.65;4.05;;;25.00;69.40;;;;;;5051599;28;20033;-46
2022/09/30 09:02:57;;;;;;;4.25;3.75;;;25.80;65.00;;;;;;5050844;28;20036;-45
2022/09/30 09:05:46;;;;;;;3.40;2.80;;;26.40;65.00;;;;;;5051437;28;20494;-45
2022/09/30 09:08:48;;;;;;;3.78;2.90;;;27.00;62.00;;;;;;5051898;28;20478;-45
2022/09/30 09:11:38;;;;;;;7.28;5.70;;;27.40;58.60;;;;;;5051246;28;20499;-45
2022/09/30 09:14:15;;;;;;;5.13;3.90;;;27.40;56.20;;;;;;5050775;28;20037;-48
2022/09/30 09:16:56;;;;;;;4.28;3.63;;;26.50;59.60;;;;;;5044300;28;20063;-44
2022/09/30 09:19:24;;;;;;;5.85;4.72;;;26.80;57.60;;;;;;5042638;28;20040;-45
2022/09/30 09:21:56;;;;;;;7.25;4.03;;;26.70;57.40;;;;;;5051146;28;20068;-45
2022/09/30 09:24:24;;;;;;;7.57;4.65;;;26.40;57.90;;;;;;5050494;28;20029;-46
2022/09/30 09:26:53;;;;;;;4.70;4.03;;;27.20;56.60;;;;;;5051283;28;20048;-47
2022/09/30 09:29:44;;;;;;;9.65;5.10;;;26.50;57.50;;;;;;5049954;28;20122;-46
2022/09/30 09:32:16;;;;;;;4.65;4.18;;;26.30;55.80;;;;;;5050948;28;20017;-46
2022/09/30 09:34:42;;;;;;;5.90;4.07;;;26.80;57.30;;;;;;5024613;28;20026;-47
2022/09/30 09:38:23;;;;;;;8.10;4.95;;;25.10;59.00;;;;;;5011498;28;20033;-47
2022/09/30 09:40:22;;;;;;;7.97;4.18;;;25.60;58.00;;;;;;5010940;28;20535;-47
2022/09/30 09:43:06;;;;;;;8.95;4.43;;;25.40;59.90;;;;;;5010608;28;20032;-47
2022/09/30 09:45:55;;;;;;;8.25;3.42;;;25.20;59.70;;;;;;5013459;28;20037;-46
2022/09/30 09:48:21;;;;;;;8.48;4.45;;;26.50;58.70;;;;;;5041146;28;20441;-46
2022/09/30 09:50:46;;;;;;;7.22;3.75;;;27.60;55.50;;;;;;5050798;28;20036;-46
2022/09/30 09:53:39;;;;;;;3.65;2.92;;;27.40;56.50;;;;;;5049975;28;20043;-48
2022/09/30 09:56:19;;;;;;;5.28;3.72;;;28.00;55.20;;;;;;5041583;28;20113;-49
2022/09/30 09:59:04;;;;;;;5.38;3.55;;;28.70;52.60;;;;;;5030163;28;20026;-46
2022/09/30 10:01:31;;;;;;;5.07;2.90;;;29.20;52.60;;;;;;5029594;28;20026;-46
2022/09/30 10:04:14;;;;;;;6.50;2.70;;;28.90;53.40;;;;;;5029304;28;20733;-45
2022/09/30 10:06:44;;;;;;;4.13;3.38;;;29.00;51.90;;;;;;5023702;28;20018;-46
2022/09/30 10:09:31;;;;;;;9.93;4.10;;;28.60;53.30;;;;;;5029729;28;20428;-46
2022/09/30 10:12:22;;;;;;;7.72;2.53;;;28.80;52.30;;;;;;5028348;28;20030;-46
2022/09/30 10:14:57;;;;;;;6.82;3.92;;;28.50;52.90;;;;;;5029868;28;20068;-46
2022/09/30 10:17:30;;;;;;;4.68;3.13;;;28.10;49.90;;;;;;5037506;28;20025;-47
2022/09/30 10:20:24;;;;;;;7.18;4.45;;;28.20;51.50;;;;;;5045240;28;20033;-46
2022/09/30 10:22:49;;;;;;;7.22;3.60;;;27.60;52.00;;;;;;5045998;28;20048;-46
2022/09/30 10:25:23;;;;;;;3.60;2.78;;;28.50;52.10;;;;;;5049169;28;20028;-46
2022/09/30 10:27:58;;;;;;;5.05;3.30;;;29.00;51.90;;;;;;5049024;28;20033;-48
2022/09/30 10:30:30;;;;;;;6.05;4.47;;;29.10;49.30;;;;;;5049117;28;20021;-46
2022/09/30 10:32:56;;;;;;;5.03;3.35;;;27.30;49.90;;;;;;5046450;28;20424;-46
2022/09/30 10:35:23;;;;;;;6.45;3.67;;;26.60;53.10;;;;;;5048731;28;20252;-46
2022/09/30 10:37:53;;;;;;;7.45;4.00;;;26.10;55.30;;;;;;5028264;28;20419;-46
2022/09/30 10:40:26;;;;;;;8.32;4.90;;;26.90;53.50;;;;;;5018310;28;20037;-46
2022/09/30 10:42:52;;;;;;;6.78;4.20;;;27.20;52.80;;;;;;5028420;28;20033;-47
2022/09/30 10:45:21;;;;;;;5.45;4.43;;;26.30;51.80;;;;;;5029125;28;20037;-46
2022/09/30 10:47:51;;;;;;;6.80;5.27;;;26.00;51.40;;;;;;5032685;28;20045;-46
2022/09/30 10:50:21;;;;;;;5.55;4.05;;;24.60;53.70;;;;;;5012404;28;20025;-46
2022/09/30 10:52:54;;;;;;;3.78;3.40;;;25.30;56.10;;;;;;5009629;28;20030;-48
2022/09/30 10:55:19;;;;;;;6.18;3.92;;;26.20;55.30;;;;;;5010061;28;20037;-48
2022/09/30 10:57:46;;;;;;;5.97;4.70;;;27.40;52.90;;;;;;5009938;28;20583;-46
2022/09/30 11:00:16;;;;;;;6.00;5.30;;;26.80;50.80;;;;;;5009992;28;20033;-46
2022/09/30 11:02:57;;;;;;;5.70;5.00;;;25.40;51.60;;;;;;5021962;28;20668;-46
2022/09/30 11:05:26;;;;;;;8.93;6.00;;;25.30;53.00;;;;;;5023055;28;20028;-47
2022/09/30 11:08:03;;;;;;;11.68;6.60;;;24.30;53.90;;;;;;5021186;28;20018;-45
2022/09/30 11:10:57;;;;;;;7.30;5.15;;;23.10;56.60;;;;;;5020585;28;20372;-47
2022/09/30 11:13:48;;;;;;;6.95;5.10;;;24.00;59.40;;;;;;5020542;28;20033;-46
2022/09/30 11:16:31;;;;;;;4.60;4.13;;;25.50;54.80;;;;;;5021675;28;20022;-45
2022/09/30 11:19:06;;;;;;;6.30;5.15;;;26.40;51.40;;;;;;5025226;28;20029;-45
2022/09/30 11:21:44;;;;;;;7.93;4.95;;;26.40;52.90;;;;;;5019193;28;20026;-45
2022/09/30 11:24:33;;;;;;;6.93;6.20;;;27.80;50.50;;;;;;5019947;28;20079;-48
2022/09/30 11:27:24;;;;;;;6.72;4.85;;;27.10;49.80;;;;;;5022034;28;20391;-45
2022/09/30 11:30:08;;;;;;;7.88;6.03;;;26.50;50.50;;;;;;5017652;28;20414;-45
2022/09/30 11:32:50;;;;;;;6.03;5.28;;;26.30;51.10;;;;;;5020072;28;20025;-46
2022/09/30 11:35:18;;;;;;;7.22;5.15;;;26.30;52.90;;;;;;5020422;28;20034;-48
2022/09/30 11:38:06;;;;;;;7.95;6.05;;;26.40;53.80;;;;;;5018137;28;20057;-45
2022/09/30 11:40:47;;;;;;;14.38;7.35;;;26.00;50.80;;;;;;5019811;28;20022;-45
2022/09/30 11:43:38;;;;;;;12.48;7.60;;;25.20;52.80;;;;;;5021931;28;20038;-47
2022/09/30 11:46:31;;;;;;;10.15;7.93;;;25.00;53.60;;;;;;5018907;28;20034;-45
2022/09/30 11:49:22;;;;;;;11.82;7.78;;;25.20;52.90;;;;;;5024482;28;20022;-48
2022/09/30 11:52:16;;;;;;;10.90;7.50;;;25.00;53.00;;;;;;5017688;28;20033;-46
2022/09/30 11:54:57;;;;;;;9.88;6.97;;;24.60;54.40;;;;;;5021202;28;20402;-46
2022/09/30 11:57:37;;;;;;;11.30;6.35;;;25.00;54.00;;;;;;5022321;28;20526;-49
2022/09/30 12:00:07;;;;;;;11.90;6.97;;;24.40;58.40;;;;;;5019593;28;20022;-47
2022/09/30 12:02:43;;;;;;;16.50;8.38;;;25.30;55.00;;;;;;5018485;28;20088;-47
2022/09/30 12:05:23;;;;;;;11.43;7.32;;;24.40;55.20;;;;;;5018158;28;20030;-45
2022/09/30 12:07:54;;;;;;;11.27;7.93;;;23.70;55.90;;;;;;5020264;28;20525;-46
2022/09/30 12:10:43;;;;;;;11.05;7.50;;;23.40;59.20;;;;;;5018003;28;20053;-46
2022/09/30 12:13:26;;;;;;;11.15;6.43;;;22.90;59.10;;;;;;5025572;28;20025;-45
2022/09/30 12:15:55;;;;;;;8.52;6.30;;;23.60;56.30;;;;;;5026993;28;20038;-47
2022/09/30 12:18:26;;;;;;;11.02;8.05;;;23.60;59.90;;;;;;5022806;28;20087;-45
2022/09/30 12:20:56;;;;;;;10.93;8.07;;;24.00;58.70;;;;;;5023014;28;20411;-45
2022/09/30 12:23:38;;;;;;;9.52;7.63;;;23.40;56.00;;;;;;5021456;28;20061;-45
2022/09/30 12:26:05;;;;;;;10.18;6.82;;;23.40;56.70;;;;;;5023026;28;20056;-48
2022/09/30 12:32:00;;;;;;;8.88;5.07;;;22.30;58.60;;;;;;5022775;28;20141;-46
2022/09/30 12:34:48;;;;;;;7.40;5.25;;;21.60;61.30;;;;;;5023001;28;20045;-46
2022/09/30 12:37:37;;;;;;;10.10;5.60;;;21.30;61.00;;;;;;5022401;28;20025;-46
2022/09/30 12:40:28;;;;;;;10.27;6.22;;;20.30;64.20;;;;;;5016052;28;20080;-44
2022/09/30 12:43:40;;;;;;;10.00;5.90;;;20.20;65.50;;;;;;5017595;28;20034;-45
2022/09/30 12:46:38;;;;;;;10.18;5.47;;;19.80;64.70;;;;;;5021711;28;20527;-44
2022/09/30 12:49:08;;;;;;;7.88;5.45;;;19.70;64.20;;;;;;5026151;28;20021;-45
2022/09/30 12:51:40;;;;;;;6.63;5.50;;;19.60;63.20;;;;;;5023179;28;20014;-46
2022/09/30 12:54:17;;;;;;;7.15;4.25;;;19.10;66.90;;;;;;5019346;28;20053;-45
2022/09/30 12:56:45;;;;;;;6.53;4.05;;;18.90;67.70;;;;;;5019938;28;20440;-44
2022/09/30 12:59:12;;;;;;;7.95;4.60;;;19.30;66.90;;;;;;5019994;28;20028;-48
2022/09/30 13:01:40;;;;;;;6.88;4.18;;;19.90;64.10;;;;;;5017203;28;20032;-46
2022/09/30 13:04:07;;;;;;;5.28;3.60;;;20.00;63.10;;;;;;5020739;28;20033;-45
2022/09/30 13:06:48;;;;;;;6.80;3.38;;;19.40;64.50;;;;;;5026561;28;20017;-46
2022/09/30 13:09:18;;;;;;;;;;;20.00;66.10;;;;;;5024302;28;20071;-45
2022/09/30 13:11:53;;;;;;;14.07;5.57;;;20.10;63.50;;;;;;5019158;28;19940;-48
2022/09/30 13:14:46;;;;;;;5.32;3.50;;;20.30;63.20;;;;;;5023513;28;20029;-45
2022/09/30 13:17:14;;;;;;;5.82;4.30;;;20.20;63.30;;;;;;5025052;28;20429;-45
2022/09/30 13:19:43;;;;;;;7.57;3.90;;;20.20;61.00;;;;;;5021447;28;20496;-45